PWSweather.com
Personal Weather Stations
Station Observations
KKYCRABO2
Cedar Creek Lake 840 Ky. Hwy. 39 N, Crab Orchard, KY 40419

Cedar Creek Lake 840 Ky. Hwy. 39 NCrab Orchard, KY 40419

Lat: 37.4736234544238, Lon: -84.5120286941528

Elevation: 952

Station Type: TYCON Power TP1080WC Pro

http://kbweather.net/

Latest ConditionsUpdated 12:30:01 PM EDT Thursday, Jul 2, 2015
Currently Today's Max Today's Min Today's Average
Temperature 70.5°F21.4°C 70.5°F21.4°C 66.7°F19.3°C 68.4°F20.2°C
Dew Point 68.0°F20.0°C 68.0°F20.0°C 66.2°F19.0°C 67.1°F19.5°C
Winds 1.3 mph W2.1 kmh W 2.0 mph SW3.2 kmh SW - 0.3 mph 0.5 kmh
Wind Gusts 3.1 mph5.0 kmh 4.0 mph6.4 kmh - -
Humidity 94% 96% 93% 95%
Pressure 30.00 in1015.9 mb 30.06 in1017.9 mb 29.97 in1014.9 mb -
Precipitation - 0.29 in7.4 mm - -
Hour Temp Dew Point Humidity Winds Wind Gusts Pressure Precip Precip Rate Daily Precip Total
12:30 PM 70.5°F21.4°C 68.0°F20.0°C 94% 1.3 mph W2.1 kmh W 3.1 mph5.0 kmh 30.00 in1015.9 mb 0.00 in0.0 mm 0.00 in0.0 mm 0.29 in7.4 mm
12:25 PM 70.5°F21.4°C 68.0°F20.0°C 94% 0.9 mph WSW1.4 kmh WSW 3.1 mph5.0 kmh 30.00 in1015.9 mb 0.05 in1.3 mm 0.00 in0.0 mm 0.29 in7.4 mm
12:20 PM 70.5°F21.4°C 68.0°F20.0°C 94% 1.1 mph SW1.8 kmh SW 2.9 mph4.7 kmh 30.00 in1015.9 mb 0.05 in1.3 mm 0.00 in0.0 mm 0.29 in7.4 mm
12:15 PM 70.5°F21.4°C 68.0°F20.0°C 94% 1.1 mph SW1.8 kmh SW 2.5 mph4.0 kmh 30.00 in1015.9 mb 0.05 in1.3 mm 0.00 in0.0 mm 0.29 in7.4 mm
12:10 PM 70.5°F21.4°C 68.0°F20.0°C 94% Calm Calm 1.6 mph2.6 kmh 30.00 in1015.9 mb 0.05 in1.3 mm 0.00 in0.0 mm 0.29 in7.4 mm
12:05 PM 70.5°F21.4°C 68.0°F20.0°C 94% Calm Calm 2.2 mph3.5 kmh 30.00 in1015.9 mb 0.05 in1.3 mm 0.00 in0.0 mm 0.29 in7.4 mm
12:00 PM 70.5°F21.4°C 68.0°F20.0°C 94% 0.9 mph WSW1.4 kmh WSW 2.2 mph3.5 kmh 29.97 in1014.9 mb 0.05 in1.3 mm 0.00 in0.0 mm 0.29 in7.4 mm
11:55 AM 70.5°F21.4°C 68.0°F20.0°C 94% Calm Calm 1.1 mph1.8 kmh 29.97 in1014.9 mb 0.05 in1.3 mm 0.00 in0.0 mm 0.29 in7.4 mm
11:50 AM 70.5°F21.4°C 68.0°F20.0°C 94% Calm Calm 2.2 mph3.5 kmh 29.97 in1014.9 mb 0.05 in1.3 mm 0.00 in0.0 mm 0.29 in7.4 mm
11:45 AM 70.5°F21.4°C 68.0°F20.0°C 94% Calm Calm 2.7 mph4.3 kmh 30.00 in1015.9 mb 0.05 in1.3 mm 0.00 in0.0 mm 0.29 in7.4 mm
11:40 AM 70.5°F21.4°C 68.0°F20.0°C 94% 1.3 mph SSW2.1 kmh SSW 2.7 mph4.3 kmh 30.00 in1015.9 mb 0.05 in1.3 mm 0.00 in0.0 mm 0.29 in7.4 mm
11:35 AM 70.5°F21.4°C 68.0°F20.0°C 94% 1.1 mph S1.8 kmh S 3.1 mph5.0 kmh 30.00 in1015.9 mb 0.05 in1.3 mm 0.00 in0.0 mm 0.29 in7.4 mm
11:30 AM 70.5°F21.4°C 68.0°F20.0°C 94% 0.9 mph S1.4 kmh S 3.1 mph5.0 kmh 29.97 in1014.9 mb 0.05 in1.3 mm 0.12 in3.0 mm 0.29 in7.4 mm
11:25 AM 70.5°F21.4°C 68.0°F20.0°C 94% 1.1 mph SSW1.8 kmh SSW 3.1 mph5.0 kmh 29.97 in1014.9 mb 0.04 in1.0 mm 0.00 in0.0 mm 0.24 in6.1 mm
11:20 AM 70.5°F21.4°C 68.0°F20.0°C 94% 1.3 mph SSW2.1 kmh SSW 3.1 mph5.0 kmh 29.97 in1014.9 mb 0.04 in1.0 mm 0.00 in0.0 mm 0.24 in6.1 mm
11:15 AM 70.5°F21.4°C 68.0°F20.0°C 94% 0.9 mph SSW1.4 kmh SSW 2.2 mph3.5 kmh 30.00 in1015.9 mb 0.04 in1.0 mm 0.00 in0.0 mm 0.24 in6.1 mm
11:10 AM 70.2°F21.2°C 68.0°F20.0°C 94% Calm Calm 1.3 mph2.1 kmh 30.00 in1015.9 mb 0.04 in1.0 mm 0.00 in0.0 mm 0.24 in6.1 mm
11:05 AM 69.8°F21.0°C 68.0°F20.0°C 94% Calm Calm 1.3 mph2.1 kmh 30.00 in1015.9 mb 0.04 in1.0 mm 0.00 in0.0 mm 0.24 in6.1 mm
11:00 AM 69.4°F20.8°C 68.0°F20.0°C 94% Calm Calm 1.3 mph2.1 kmh 30.00 in1015.9 mb 0.04 in1.0 mm 0.00 in0.0 mm 0.24 in6.1 mm
10:55 AM 69.4°F20.8°C 68.0°F20.0°C 94% Calm Calm 1.1 mph1.8 kmh 30.00 in1015.9 mb 0.04 in1.0 mm 0.00 in0.0 mm 0.24 in6.1 mm
10:50 AM 69.4°F20.8°C 68.0°F20.0°C 94% Calm Calm 1.1 mph1.8 kmh 30.00 in1015.9 mb 0.04 in1.0 mm 0.00 in0.0 mm 0.24 in6.1 mm
10:45 AM 69.3°F20.7°C 68.0°F20.0°C 94% Calm Calm -- 30.00 in1015.9 mb 0.04 in1.0 mm 0.00 in0.0 mm 0.24 in6.1 mm
10:40 AM 69.1°F20.6°C 68.0°F20.0°C 94% Calm Calm 1.3 mph2.1 kmh 30.00 in1015.9 mb 0.04 in1.0 mm 0.00 in0.0 mm 0.24 in6.1 mm
10:35 AM 69.1°F20.6°C 68.0°F20.0°C 94% Calm Calm 1.3 mph2.1 kmh 30.00 in1015.9 mb 0.04 in1.0 mm 0.00 in0.0 mm 0.24 in6.1 mm
10:30 AM 69.1°F20.6°C 68.0°F20.0°C 94% Calm Calm -- 30.00 in1015.9 mb 0.04 in1.0 mm 0.48 in12.2 mm 0.24 in6.1 mm
10:25 AM 68.9°F20.5°C 68.0°F20.0°C 94% Calm Calm 0.9 mph1.4 kmh 30.00 in1015.9 mb 0.00 in0.0 mm 0.00 in0.0 mm 0.20 in5.1 mm
10:20 AM 68.9°F20.5°C 68.0°F20.0°C 94% Calm Calm 1.1 mph1.8 kmh 30.00 in1015.9 mb 0.00 in0.0 mm 0.00 in0.0 mm 0.20 in5.1 mm
10:15 AM 68.9°F20.5°C 68.0°F20.0°C 94% Calm Calm 1.1 mph1.8 kmh 30.00 in1015.9 mb 0.00 in0.0 mm 0.00 in0.0 mm 0.20 in5.1 mm
10:10 AM 68.9°F20.5°C 68.0°F20.0°C 95% Calm Calm 2.0 mph3.2 kmh 30.00 in1015.9 mb 0.00 in0.0 mm 0.00 in0.0 mm 0.20 in5.1 mm
10:05 AM 68.9°F20.5°C 68.0°F20.0°C 95% 0.9 mph SW1.4 kmh SW 2.0 mph3.2 kmh 30.00 in1015.9 mb 0.00 in0.0 mm 0.00 in0.0 mm 0.20 in5.1 mm
10:00 AM 68.7°F20.4°C 68.0°F20.0°C 95% Calm Calm 1.6 mph2.6 kmh 30.00 in1015.9 mb 0.00 in0.0 mm 0.00 in0.0 mm 0.20 in5.1 mm
09:55 AM 68.5°F20.3°C 68.0°F20.0°C 95% Calm Calm 2.2 mph3.5 kmh 30.00 in1015.9 mb 0.00 in0.0 mm 0.00 in0.0 mm 0.20 in5.1 mm
09:50 AM 68.5°F20.3°C 68.0°F20.0°C 95% Calm Calm 2.2 mph3.5 kmh 30.00 in1015.9 mb 0.00 in0.0 mm 0.00 in0.0 mm 0.20 in5.1 mm
09:45 AM 68.4°F20.2°C 68.0°F20.0°C 95% 0.9 mph SSE1.4 kmh SSE 2.2 mph3.5 kmh 30.00 in1015.9 mb 0.00 in0.0 mm 0.00 in0.0 mm 0.20 in5.1 mm
09:40 AM 68.2°F20.1°C 66.2°F19.0°C 95% 1.1 mph SW1.8 kmh SW 2.2 mph3.5 kmh 30.00 in1015.9 mb 0.00 in0.0 mm 0.00 in0.0 mm 0.20 in5.1 mm
09:35 AM 68.0°F20.0°C 66.2°F19.0°C 95% 0.9 mph SW1.4 kmh SW 2.0 mph3.2 kmh 30.00 in1015.9 mb 0.00 in0.0 mm 0.00 in0.0 mm 0.20 in5.1 mm
09:30 AM 68.0°F20.0°C 66.2°F19.0°C 95% 1.1 mph SW1.8 kmh SW 2.0 mph3.2 kmh 30.00 in1015.9 mb 0.04 in1.0 mm 0.00 in0.0 mm 0.20 in5.1 mm
09:25 AM 68.0°F20.0°C 66.2°F19.0°C 95% Calm Calm 4.0 mph6.4 kmh 30.00 in1015.9 mb 0.04 in1.0 mm 0.00 in0.0 mm 0.20 in5.1 mm
09:20 AM 68.0°F20.0°C 66.2°F19.0°C 95% 2.0 mph SW3.2 kmh SW 4.0 mph6.4 kmh 30.00 in1015.9 mb 0.04 in1.0 mm 0.00 in0.0 mm 0.20 in5.1 mm
09:15 AM 68.0°F20.0°C 66.2°F19.0°C 95% 1.1 mph WSW1.8 kmh WSW 2.2 mph3.5 kmh 30.00 in1015.9 mb 0.04 in1.0 mm 0.00 in0.0 mm 0.20 in5.1 mm
09:10 AM 68.0°F20.0°C 66.2°F19.0°C 95% Calm Calm 2.2 mph3.5 kmh 30.00 in1015.9 mb 0.04 in1.0 mm 0.00 in0.0 mm 0.20 in5.1 mm
09:05 AM 68.0°F20.0°C 66.2°F19.0°C 95% Calm Calm 2.5 mph4.0 kmh 30.00 in1015.9 mb 0.04 in1.0 mm 0.00 in0.0 mm 0.20 in5.1 mm
09:00 AM 67.8°F19.9°C 68.0°F20.0°C 96% 1.3 mph SSW2.1 kmh SSW 2.5 mph4.0 kmh 30.00 in1015.9 mb 0.04 in1.0 mm 0.00 in0.0 mm 0.20 in5.1 mm
08:55 AM 67.6°F19.8°C 66.2°F19.0°C 96% Calm Calm 1.1 mph1.8 kmh 30.00 in1015.9 mb 0.04 in1.0 mm 0.00 in0.0 mm 0.20 in5.1 mm
08:50 AM 67.6°F19.8°C 66.2°F19.0°C 96% Calm Calm 1.6 mph2.6 kmh 30.00 in1015.9 mb 0.04 in1.0 mm 0.00 in0.0 mm 0.20 in5.1 mm
08:45 AM 67.5°F19.7°C 66.2°F19.0°C 96% Calm Calm 1.6 mph2.6 kmh 30.00 in1015.9 mb 0.04 in1.0 mm 0.00 in0.0 mm 0.20 in5.1 mm
08:40 AM 67.5°F19.7°C 66.2°F19.0°C 96% 0.9 mph SSW1.4 kmh SSW 1.6 mph2.6 kmh 30.00 in1015.9 mb 0.04 in1.0 mm 0.00 in0.0 mm 0.20 in5.1 mm
08:35 AM 67.5°F19.7°C 66.2°F19.0°C 96% Calm Calm 1.3 mph2.1 kmh 30.00 in1015.9 mb 0.04 in1.0 mm 0.48 in12.2 mm 0.20 in5.1 mm
08:30 AM 67.5°F19.7°C 66.2°F19.0°C 96% Calm Calm 1.1 mph1.8 kmh 30.00 in1015.9 mb 0.00 in0.0 mm 0.00 in0.0 mm 0.16 in4.1 mm
08:25 AM 67.5°F19.7°C 66.2°F19.0°C 96% Calm Calm 1.3 mph2.1 kmh 30.00 in1015.9 mb 0.00 in0.0 mm 0.00 in0.0 mm 0.16 in4.1 mm
08:20 AM 67.3°F19.6°C 66.2°F19.0°C 96% Calm Calm 1.6 mph2.6 kmh 30.00 in1015.9 mb 0.00 in0.0 mm 0.00 in0.0 mm 0.16 in4.1 mm
08:15 AM 67.3°F19.6°C 66.2°F19.0°C 96% Calm Calm 1.6 mph2.6 kmh 30.00 in1015.9 mb 0.00 in0.0 mm 0.00 in0.0 mm 0.16 in4.1 mm
08:10 AM 67.3°F19.6°C 66.2°F19.0°C 96% Calm Calm 1.6 mph2.6 kmh 30.00 in1015.9 mb 0.00 in0.0 mm 0.00 in0.0 mm 0.16 in4.1 mm
08:05 AM 67.1°F19.5°C 66.2°F19.0°C 96% 0.9 mph SSW1.4 kmh SSW 1.6 mph2.6 kmh 30.00 in1015.9 mb 0.00 in0.0 mm 0.00 in0.0 mm 0.16 in4.1 mm
08:00 AM 67.1°F19.5°C 66.2°F19.0°C 96% Calm Calm 2.0 mph3.2 kmh 30.00 in1015.9 mb 0.00 in0.0 mm 0.00 in0.0 mm 0.16 in4.1 mm
07:55 AM 67.1°F19.5°C 66.2°F19.0°C 96% 0.9 mph SSW1.4 kmh SSW 2.0 mph3.2 kmh 30.00 in1015.9 mb 0.00 in0.0 mm 0.00 in0.0 mm 0.16 in4.1 mm
07:50 AM 67.1°F19.5°C 66.2°F19.0°C 96% Calm Calm 1.3 mph2.1 kmh 30.00 in1015.9 mb 0.00 in0.0 mm 0.00 in0.0 mm 0.16 in4.1 mm
07:45 AM 66.9°F19.4°C 66.2°F19.0°C 96% Calm Calm 3.1 mph5.0 kmh 29.97 in1014.9 mb 0.00 in0.0 mm 0.00 in0.0 mm 0.16 in4.1 mm
07:40 AM 66.9°F19.4°C 66.2°F19.0°C 96% 2.0 mph SSW3.2 kmh SSW 3.1 mph5.0 kmh 29.97 in1014.9 mb 0.00 in0.0 mm 0.00 in0.0 mm 0.16 in4.1 mm
07:35 AM 66.9°F19.4°C 66.2°F19.0°C 96% Calm Calm 1.6 mph2.6 kmh 29.97 in1014.9 mb 0.00 in0.0 mm 0.00 in0.0 mm 0.16 in4.1 mm
07:30 AM 66.9°F19.4°C 66.2°F19.0°C 96% Calm Calm 1.6 mph2.6 kmh 29.97 in1014.9 mb 0.00 in0.0 mm 0.00 in0.0 mm 0.16 in4.1 mm
07:25 AM 66.9°F19.4°C 66.2°F19.0°C 96% Calm Calm 2.0 mph3.2 kmh 29.97 in1014.9 mb 0.00 in0.0 mm 0.00 in0.0 mm 0.16 in4.1 mm
07:20 AM 66.7°F19.3°C 66.2°F19.0°C 95% 0.9 mph SSW1.4 kmh SSW 2.0 mph3.2 kmh 29.97 in1014.9 mb 0.00 in0.0 mm 0.00 in0.0 mm 0.16 in4.1 mm
07:15 AM 66.7°F19.3°C 66.2°F19.0°C 95% Calm Calm 1.6 mph2.6 kmh 29.97 in1014.9 mb 0.00 in0.0 mm 0.00 in0.0 mm 0.16 in4.1 mm
07:10 AM 66.7°F19.3°C 66.2°F19.0°C 95% Calm Calm 1.1 mph1.8 kmh 29.97 in1014.9 mb 0.04 in1.0 mm 0.00 in0.0 mm 0.16 in4.1 mm
07:05 AM 66.7°F19.3°C 66.2°F19.0°C 95% Calm Calm 1.6 mph2.6 kmh 29.97 in1014.9 mb 0.04 in1.0 mm 0.00 in0.0 mm 0.16 in4.1 mm
07:00 AM 66.7°F19.3°C 66.2°F19.0°C 95% Calm Calm 1.6 mph2.6 kmh 30.00 in1015.9 mb 0.04 in1.0 mm 0.00 in0.0 mm 0.16 in4.1 mm
06:55 AM 66.7°F19.3°C 66.2°F19.0°C 95% Calm Calm 1.1 mph1.8 kmh 30.00 in1015.9 mb 0.04 in1.0 mm 0.00 in0.0 mm 0.16 in4.1 mm
06:50 AM 66.7°F19.3°C 66.2°F19.0°C 95% Calm Calm 2.0 mph3.2 kmh 30.00 in1015.9 mb 0.04 in1.0 mm 0.00 in0.0 mm 0.16 in4.1 mm
06:45 AM 66.7°F19.3°C 66.2°F19.0°C 95% 1.1 mph SSW1.8 kmh SSW 2.0 mph3.2 kmh 30.00 in1015.9 mb 0.04 in1.0 mm 0.00 in0.0 mm 0.16 in4.1 mm
06:40 AM 66.7°F19.3°C 66.2°F19.0°C 95% Calm Calm 1.6 mph2.6 kmh 30.00 in1015.9 mb 0.08 in2.0 mm 0.00 in0.0 mm 0.16 in4.1 mm
06:35 AM 66.7°F19.3°C 66.2°F19.0°C 95% Calm Calm 1.3 mph2.1 kmh 30.00 in1015.9 mb 0.08 in2.0 mm 0.00 in0.0 mm 0.16 in4.1 mm
06:30 AM 66.7°F19.3°C 66.2°F19.0°C 95% Calm Calm 1.1 mph1.8 kmh 30.00 in1015.9 mb 0.08 in2.0 mm 0.00 in0.0 mm 0.16 in4.1 mm
06:25 AM 66.7°F19.3°C 66.2°F19.0°C 95% Calm Calm 1.1 mph1.8 kmh 30.00 in1015.9 mb 0.08 in2.0 mm 0.00 in0.0 mm 0.16 in4.1 mm
06:20 AM 66.9°F19.4°C 66.2°F19.0°C 95% Calm Calm 1.1 mph1.8 kmh 30.00 in1015.9 mb 0.08 in2.0 mm 0.00 in0.0 mm 0.16 in4.1 mm
06:15 AM 66.9°F19.4°C 66.2°F19.0°C 95% Calm Calm 1.6 mph2.6 kmh 30.00 in1015.9 mb 0.08 in2.0 mm 0.48 in12.2 mm 0.16 in4.1 mm
06:10 AM 66.9°F19.4°C 66.2°F19.0°C 95% Calm Calm 1.6 mph2.6 kmh 30.00 in1015.9 mb 0.04 in1.0 mm 0.00 in0.0 mm 0.12 in3.0 mm
06:05 AM 66.9°F19.4°C 66.2°F19.0°C 95% Calm Calm 2.5 mph4.0 kmh 30.00 in1015.9 mb 0.04 in1.0 mm 0.00 in0.0 mm 0.12 in3.0 mm
06:00 AM 67.1°F19.5°C 66.2°F19.0°C 95% Calm Calm 2.5 mph4.0 kmh 30.00 in1015.9 mb 0.04 in1.0 mm 0.00 in0.0 mm 0.12 in3.0 mm
05:55 AM 67.1°F19.5°C 66.2°F19.0°C 95% Calm Calm 2.0 mph3.2 kmh 30.00 in1015.9 mb 0.04 in1.0 mm 0.00 in0.0 mm 0.12 in3.0 mm
05:50 AM 67.3°F19.6°C 66.2°F19.0°C 95% Calm Calm 1.1 mph1.8 kmh 30.00 in1015.9 mb 0.04 in1.0 mm 0.00 in0.0 mm 0.12 in3.0 mm
05:45 AM 67.3°F19.6°C 66.2°F19.0°C 95% Calm Calm 1.3 mph2.1 kmh 30.00 in1015.9 mb 0.04 in1.0 mm 0.48 in12.2 mm 0.12 in3.0 mm
05:40 AM 67.3°F19.6°C 66.2°F19.0°C 95% Calm Calm 1.3 mph2.1 kmh 30.00 in1015.9 mb 0.00 in0.0 mm 0.00 in0.0 mm 0.08 in2.0 mm
05:35 AM 67.3°F19.6°C 66.2°F19.0°C 95% Calm Calm 2.2 mph3.5 kmh 30.00 in1015.9 mb 0.00 in0.0 mm 0.00 in0.0 mm 0.08 in2.0 mm
05:30 AM 67.3°F19.6°C 66.2°F19.0°C 95% Calm Calm 2.2 mph3.5 kmh 30.00 in1015.9 mb 0.00 in0.0 mm 0.00 in0.0 mm 0.08 in2.0 mm
05:25 AM 67.3°F19.6°C 66.2°F19.0°C 95% 0.9 mph WSW1.4 kmh WSW 2.0 mph3.2 kmh 30.00 in1015.9 mb 0.00 in0.0 mm 0.00 in0.0 mm 0.08 in2.0 mm
05:20 AM 67.3°F19.6°C 66.2°F19.0°C 95% Calm Calm 2.2 mph3.5 kmh 30.00 in1015.9 mb 0.00 in0.0 mm 0.00 in0.0 mm 0.08 in2.0 mm
05:15 AM 67.3°F19.6°C 66.2°F19.0°C 95% 0.9 mph SSW1.4 kmh SSW 2.2 mph3.5 kmh 30.00 in1015.9 mb 0.00 in0.0 mm 0.00 in0.0 mm 0.08 in2.0 mm
05:10 AM 67.3°F19.6°C 66.2°F19.0°C 95% Calm Calm 1.6 mph2.6 kmh 30.00 in1015.9 mb 0.00 in0.0 mm 0.00 in0.0 mm 0.08 in2.0 mm
05:05 AM 67.1°F19.5°C 66.2°F19.0°C 95% Calm Calm 2.0 mph3.2 kmh 30.00 in1015.9 mb 0.00 in0.0 mm 0.00 in0.0 mm 0.08 in2.0 mm
05:00 AM 67.1°F19.5°C 66.2°F19.0°C 95% Calm Calm 2.0 mph3.2 kmh 29.97 in1014.9 mb 0.00 in0.0 mm 0.00 in0.0 mm 0.08 in2.0 mm
04:55 AM 67.1°F19.5°C 66.2°F19.0°C 95% Calm Calm 1.1 mph1.8 kmh 29.97 in1014.9 mb 0.00 in0.0 mm 0.00 in0.0 mm 0.08 in2.0 mm
04:50 AM 67.1°F19.5°C 66.2°F19.0°C 95% Calm Calm 1.6 mph2.6 kmh 29.97 in1014.9 mb 0.00 in0.0 mm 0.00 in0.0 mm 0.08 in2.0 mm
04:45 AM 67.1°F19.5°C 66.2°F19.0°C 95% Calm Calm 1.6 mph2.6 kmh 30.00 in1015.9 mb 0.00 in0.0 mm 0.00 in0.0 mm 0.08 in2.0 mm
04:40 AM 67.1°F19.5°C 66.2°F19.0°C 95% Calm Calm 2.5 mph4.0 kmh 30.00 in1015.9 mb 0.00 in0.0 mm 0.00 in0.0 mm 0.08 in2.0 mm
04:35 AM 67.1°F19.5°C 66.2°F19.0°C 95% 1.1 mph SW1.8 kmh SW 2.5 mph4.0 kmh 30.00 in1015.9 mb 0.00 in0.0 mm 0.00 in0.0 mm 0.08 in2.0 mm
04:30 AM 67.3°F19.6°C 66.2°F19.0°C 95% Calm Calm 1.6 mph2.6 kmh 29.97 in1014.9 mb 0.00 in0.0 mm 0.00 in0.0 mm 0.08 in2.0 mm
04:25 AM 67.3°F19.6°C 66.2°F19.0°C 95% Calm Calm 2.5 mph4.0 kmh 29.97 in1014.9 mb 0.00 in0.0 mm 0.00 in0.0 mm 0.08 in2.0 mm
04:20 AM 67.5°F19.7°C 66.2°F19.0°C 95% 0.9 mph SSW1.4 kmh SSW 2.5 mph4.0 kmh 29.97 in1014.9 mb 0.00 in0.0 mm 0.00 in0.0 mm 0.08 in2.0 mm
04:15 AM 67.5°F19.7°C 66.2°F19.0°C 95% 0.9 mph SSW1.4 kmh SSW 2.2 mph3.5 kmh 29.97 in1014.9 mb 0.00 in0.0 mm 0.00 in0.0 mm 0.08 in2.0 mm
04:10 AM 67.6°F19.8°C 66.2°F19.0°C 95% Calm Calm 2.2 mph3.5 kmh 29.97 in1014.9 mb 0.00 in0.0 mm 0.00 in0.0 mm 0.08 in2.0 mm
04:05 AM 67.8°F19.9°C 66.2°F19.0°C 95% Calm Calm 2.2 mph3.5 kmh 29.97 in1014.9 mb 0.00 in0.0 mm 0.00 in0.0 mm 0.08 in2.0 mm
04:00 AM 67.8°F19.9°C 66.2°F19.0°C 95% 0.9 mph SW1.4 kmh SW 2.2 mph3.5 kmh 30.00 in1015.9 mb 0.00 in0.0 mm 0.00 in0.0 mm 0.08 in2.0 mm
03:55 AM 68.0°F20.0°C 66.2°F19.0°C 94% Calm Calm 1.3 mph2.1 kmh 30.00 in1015.9 mb 0.00 in0.0 mm 0.00 in0.0 mm 0.08 in2.0 mm
03:50 AM 68.2°F20.1°C 66.2°F19.0°C 94% Calm Calm 1.3 mph2.1 kmh 30.00 in1015.9 mb 0.00 in0.0 mm 0.00 in0.0 mm 0.08 in2.0 mm
03:45 AM 68.2°F20.1°C 66.2°F19.0°C 94% 0.9 mph SW1.4 kmh SW 1.3 mph2.1 kmh 30.00 in1015.9 mb 0.00 in0.0 mm 0.00 in0.0 mm 0.08 in2.0 mm
03:40 AM 68.4°F20.2°C 66.2°F19.0°C 94% Calm Calm 1.3 mph2.1 kmh 30.00 in1015.9 mb 0.00 in0.0 mm 0.00 in0.0 mm 0.08 in2.0 mm
03:35 AM 68.5°F20.3°C 66.2°F19.0°C 94% Calm Calm 1.1 mph1.8 kmh 30.00 in1015.9 mb 0.00 in0.0 mm 0.00 in0.0 mm 0.08 in2.0 mm
03:30 AM 68.5°F20.3°C 68.0°F20.0°C 95% Calm Calm 1.1 mph1.8 kmh 29.97 in1014.9 mb 0.00 in0.0 mm 0.00 in0.0 mm 0.08 in2.0 mm
03:25 AM 68.7°F20.4°C 68.0°F20.0°C 95% Calm Calm 3.1 mph5.0 kmh 29.97 in1014.9 mb 0.00 in0.0 mm 0.00 in0.0 mm 0.08 in2.0 mm
03:20 AM 68.7°F20.4°C 68.0°F20.0°C 95% 1.1 mph SW1.8 kmh SW 3.1 mph5.0 kmh 29.97 in1014.9 mb 0.00 in0.0 mm 0.00 in0.0 mm 0.08 in2.0 mm
03:15 AM 68.7°F20.4°C 68.0°F20.0°C 95% Calm Calm 1.6 mph2.6 kmh 29.97 in1014.9 mb 0.04 in1.0 mm 0.00 in0.0 mm 0.08 in2.0 mm
03:10 AM 68.7°F20.4°C 68.0°F20.0°C 95% 1.1 mph WSW1.8 kmh WSW 1.6 mph2.6 kmh 29.97 in1014.9 mb 0.04 in1.0 mm 0.00 in0.0 mm 0.08 in2.0 mm
03:05 AM 68.7°F20.4°C 68.0°F20.0°C 95% Calm Calm 1.3 mph2.1 kmh 29.97 in1014.9 mb 0.04 in1.0 mm 0.00 in0.0 mm 0.08 in2.0 mm
03:00 AM 68.7°F20.4°C 68.0°F20.0°C 95% Calm Calm 1.6 mph2.6 kmh 29.97 in1014.9 mb 0.04 in1.0 mm 0.00 in0.0 mm 0.08 in2.0 mm
02:55 AM 68.7°F20.4°C 68.0°F20.0°C 95% 0.9 mph WSW1.4 kmh WSW 1.6 mph2.6 kmh 29.97 in1014.9 mb 0.04 in1.0 mm 0.00 in0.0 mm 0.08 in2.0 mm
02:50 AM 68.7°F20.4°C 68.0°F20.0°C 95% Calm Calm 1.3 mph2.1 kmh 29.97 in1014.9 mb 0.04 in1.0 mm 0.00 in0.0 mm 0.08 in2.0 mm
02:45 AM 68.9°F20.5°C 68.0°F20.0°C 95% 1.1 mph WSW1.8 kmh WSW 1.3 mph2.1 kmh 30.00 in1015.9 mb 0.04 in1.0 mm 0.00 in0.0 mm 0.08 in2.0 mm
02:40 AM 68.9°F20.5°C 68.0°F20.0°C 94% Calm Calm -- 30.00 in1015.9 mb 0.04 in1.0 mm 0.00 in0.0 mm 0.08 in2.0 mm
02:35 AM 68.9°F20.5°C 68.0°F20.0°C 95% Calm Calm -- 30.00 in1015.9 mb 0.04 in1.0 mm 0.00 in0.0 mm 0.08 in2.0 mm
02:30 AM 69.1°F20.6°C 68.0°F20.0°C 94% Calm Calm -- 30.00 in1015.9 mb 0.08 in2.0 mm 0.00 in0.0 mm 0.08 in2.0 mm
02:25 AM 69.1°F20.6°C 68.0°F20.0°C 94% Calm Calm 0.9 mph1.4 kmh 30.00 in1015.9 mb 0.08 in2.0 mm 0.00 in0.0 mm 0.08 in2.0 mm
02:20 AM 69.1°F20.6°C 68.0°F20.0°C 94% Calm Calm 0.9 mph1.4 kmh 30.00 in1015.9 mb 0.08 in2.0 mm 0.48 in12.2 mm 0.08 in2.0 mm
02:15 AM 69.3°F20.7°C 68.0°F20.0°C 94% Calm Calm 1.1 mph1.8 kmh 30.00 in1015.9 mb 0.04 in1.0 mm 0.00 in0.0 mm 0.04 in1.0 mm
02:10 AM 69.3°F20.7°C 68.0°F20.0°C 94% Calm Calm 1.1 mph1.8 kmh 30.00 in1015.9 mb 0.04 in1.0 mm 0.00 in0.0 mm 0.04 in1.0 mm
02:05 AM 69.3°F20.7°C 68.0°F20.0°C 94% Calm Calm 1.3 mph2.1 kmh 30.00 in1015.9 mb 0.04 in1.0 mm 0.00 in0.0 mm 0.04 in1.0 mm
02:00 AM 69.3°F20.7°C 68.0°F20.0°C 94% Calm Calm 1.3 mph2.1 kmh 30.03 in1016.9 mb 0.04 in1.0 mm 0.00 in0.0 mm 0.04 in1.0 mm
01:55 AM 69.3°F20.7°C 68.0°F20.0°C 94% Calm Calm -- 30.03 in1016.9 mb 0.04 in1.0 mm 0.00 in0.0 mm 0.04 in1.0 mm
01:50 AM 69.3°F20.7°C 68.0°F20.0°C 94% Calm Calm 1.1 mph1.8 kmh 30.03 in1016.9 mb 0.04 in1.0 mm 0.00 in0.0 mm 0.04 in1.0 mm
01:45 AM 69.3°F20.7°C 68.0°F20.0°C 94% Calm Calm 1.6 mph2.6 kmh 30.03 in1016.9 mb 0.04 in1.0 mm 0.00 in0.0 mm 0.04 in1.0 mm
01:40 AM 69.4°F20.8°C 68.0°F20.0°C 94% Calm Calm 1.6 mph2.6 kmh 30.03 in1016.9 mb 0.04 in1.0 mm 0.00 in0.0 mm 0.04 in1.0 mm
01:35 AM 69.4°F20.8°C 68.0°F20.0°C 94% 0.9 mph WSW1.4 kmh WSW 1.3 mph2.1 kmh 30.03 in1016.9 mb 0.04 in1.0 mm 0.48 in12.2 mm 0.04 in1.0 mm
01:30 AM 69.4°F20.8°C 68.0°F20.0°C 94% Calm Calm 1.3 mph2.1 kmh 30.03 in1016.9 mb 0.00 in0.0 mm 0.00 in0.0 mm 0.00 in0.0 mm
01:25 AM 69.4°F20.8°C 68.0°F20.0°C 94% Calm Calm 1.3 mph2.1 kmh 30.03 in1016.9 mb 0.00 in0.0 mm 0.00 in0.0 mm 0.00 in0.0 mm
01:20 AM 69.4°F20.8°C 68.0°F20.0°C 93% Calm Calm -- 30.03 in1016.9 mb 0.00 in0.0 mm 0.00 in0.0 mm 0.00 in0.0 mm
01:15 AM 69.4°F20.8°C 68.0°F20.0°C 93% Calm Calm -- 30.03 in1016.9 mb 0.00 in0.0 mm 0.00 in0.0 mm 0.00 in0.0 mm
01:10 AM 69.3°F20.7°C 68.0°F20.0°C 93% Calm Calm -- 30.03 in1016.9 mb 0.00 in0.0 mm 0.00 in0.0 mm 0.00 in0.0 mm
01:05 AM 69.3°F20.7°C 68.0°F20.0°C 93% Calm Calm -- 30.03 in1016.9 mb 0.00 in0.0 mm 0.00 in0.0 mm 0.00 in0.0 mm
01:00 AM 69.3°F20.7°C 68.0°F20.0°C 93% Calm Calm 0.9 mph1.4 kmh 30.03 in1016.9 mb 0.00 in0.0 mm 0.00 in0.0 mm 0.00 in0.0 mm
12:55 AM 69.3°F20.7°C 68.0°F20.0°C 93% Calm Calm 0.9 mph1.4 kmh 30.03 in1016.9 mb 0.00 in0.0 mm 0.00 in0.0 mm 0.00 in0.0 mm
12:50 AM 69.3°F20.7°C 68.0°F20.0°C 93% Calm Calm 2.7 mph4.3 kmh 30.03 in1016.9 mb 0.00 in0.0 mm 0.00 in0.0 mm 0.00 in0.0 mm
12:45 AM 69.3°F20.7°C 68.0°F20.0°C 93% Calm Calm 2.7 mph4.3 kmh 30.03 in1016.9 mb 0.00 in0.0 mm 0.00 in0.0 mm 0.00 in0.0 mm
12:40 AM 69.3°F20.7°C 68.0°F20.0°C 93% Calm Calm 1.6 mph2.6 kmh 30.03 in1016.9 mb 0.00 in0.0 mm 0.00 in0.0 mm 0.00 in0.0 mm
12:35 AM 69.3°F20.7°C 68.0°F20.0°C 93% Calm Calm 1.6 mph2.6 kmh 30.03 in1016.9 mb 0.00 in0.0 mm 0.00 in0.0 mm 0.00 in0.0 mm
12:30 AM 69.3°F20.7°C 68.0°F20.0°C 93% Calm Calm 1.6 mph2.6 kmh 30.03 in1016.9 mb 0.00 in0.0 mm 0.00 in0.0 mm 0.00 in0.0 mm
12:25 AM 69.3°F20.7°C 68.0°F20.0°C 93% Calm Calm 1.3 mph2.1 kmh 30.03 in1016.9 mb 0.00 in0.0 mm 0.00 in0.0 mm 0.00 in0.0 mm
12:20 AM 69.3°F20.7°C 68.0°F20.0°C 93% Calm Calm 1.3 mph2.1 kmh 30.03 in1016.9 mb 0.00 in0.0 mm 0.00 in0.0 mm 0.00 in0.0 mm
12:15 AM 69.3°F20.7°C 68.0°F20.0°C 93% Calm Calm 1.3 mph2.1 kmh 30.06 in1017.9 mb 0.00 in0.0 mm 0.00 in0.0 mm 0.00 in0.0 mm
12:10 AM 69.4°F20.8°C 68.0°F20.0°C 93% Calm Calm 2.2 mph3.5 kmh 30.06 in1017.9 mb 0.00 in0.0 mm 0.00 in0.0 mm 0.00 in0.0 mm
12:05 AM 69.4°F20.8°C 68.0°F20.0°C 93% Calm Calm 2.2 mph3.5 kmh 30.06 in1017.9 mb 0.00 in0.0 mm 0.00 in0.0 mm 0.00 in0.0 mm
12:00 AM 69.4°F20.8°C 68.0°F20.0°C 93% Calm Calm 2.2 mph3.5 kmh 30.03 in1016.9 mb 0.00 in0.0 mm 0.00 in0.0 mm 0.00 in0.0 mm